createdAt,value
2022-10-30T00:00:36.135Z,96044.94
2022-10-30T00:03:04.129Z,96039.66
2022-10-30T00:05:32.521Z,96042.09
2022-10-30T00:08:00.734Z,96044.13
2022-10-30T00:10:28.681Z,96041.22
2022-10-30T00:12:56.322Z,96040.31
2022-10-30T00:15:24.320Z,96044.34
2022-10-30T00:17:54.068Z,96040.59
2022-10-30T00:20:22.046Z,96041.69
2022-10-30T00:22:49.659Z,96037.34
2022-10-30T00:25:17.833Z,96041.47
2022-10-30T00:27:45.474Z,96042.22
2022-10-30T00:30:15.563Z,96038.28
2022-10-30T00:32:43.858Z,96049.03
2022-10-30T00:35:13.524Z,96034.19
2022-10-30T00:37:41.353Z,96035.63
2022-10-30T00:40:15.143Z,96040.25
2022-10-30T00:42:43.345Z,96038.09
2022-10-30T00:45:12.737Z,96034.25
2022-10-30T00:47:44.174Z,96029.41
2022-10-30T00:50:18.355Z,96029.03
2022-10-30T00:52:52.103Z,96037.59
2022-10-30T00:55:24.025Z,96032.50
2022-10-30T00:57:53.131Z,96036.25
2022-10-30T01:00:23.905Z,96031.78
2022-10-30T01:02:52.224Z,96031.50
2022-10-30T01:05:25.330Z,96033.25
2022-10-30T01:07:53.224Z,96037.25
2022-10-30T01:10:22.273Z,96038.00
2022-10-30T01:12:52.282Z,96033.06
2022-10-30T01:15:25.754Z,96037.91
2022-10-30T01:18:17.753Z,96040.25
2022-10-30T01:21:18.150Z,96037.16
2022-10-30T01:23:56.710Z,96042.81
2022-10-30T01:26:37.905Z,96048.25
2022-10-30T01:29:20.724Z,96044.16
2022-10-30T01:31:58.747Z,96037.59
2022-10-30T01:34:39.047Z,96035.03
2022-10-30T01:37:14.789Z,96029.75
2022-10-30T01:39:44.688Z,96033.25
2022-10-30T01:42:49.216Z,96030.03
2022-10-30T01:45:27.599Z,96028.94
2022-10-30T01:48:32.090Z,96019.53
2022-10-30T01:51:10.746Z,96031.09
2022-10-30T01:53:51.390Z,96021.63
2022-10-30T01:56:28.096Z,96024.63
2022-10-30T01:59:10.229Z,96021.28
2022-10-30T02:01:40.165Z,96027.13
2022-10-30T02:04:09.367Z,96031.16
2022-10-30T02:06:38.462Z,96022.56
2022-10-30T02:09:06.676Z,96030.16
2022-10-30T02:11:36.568Z,96023.47
2022-10-30T02:14:08.057Z,96020.88
2022-10-30T02:16:40.441Z,96018.44
2022-10-30T02:19:08.074Z,96020.75
2022-10-30T02:21:37.530Z,96015.75
2022-10-30T02:24:05.732Z,96015.38
2022-10-30T02:26:33.753Z,96008.25
2022-10-30T02:29:03.255Z,96015.66
2022-10-30T02:31:31.452Z,96013.66
2022-10-30T02:33:59.168Z,96021.63
2022-10-30T02:36:28.219Z,96015.06
2022-10-30T02:38:57.751Z,96015.28
2022-10-30T02:41:25.704Z,96007.06
2022-10-30T02:43:54.461Z,96005.78
2022-10-30T02:46:22.971Z,96007.81
2022-10-30T02:48:50.669Z,96001.28
2022-10-30T02:51:18.752Z,96006.00
2022-10-30T02:53:47.728Z,95991.09
2022-10-30T02:56:17.066Z,95996.19
2022-10-30T02:58:45.420Z,95992.53
2022-10-30T03:01:15.388Z,95990.56
2022-10-30T03:03:44.674Z,95991.38
2022-10-30T03:06:15.474Z,95992.19
2022-10-30T03:08:43.670Z,96001.84
2022-10-30T03:11:13.454Z,96005.63
2022-10-30T03:13:43.448Z,96008.72
2022-10-30T03:16:12.969Z,96012.41
2022-10-30T03:18:42.210Z,96010.50
2022-10-30T03:21:14.629Z,96004.16
2022-10-30T03:23:42.728Z,96004.72
2022-10-30T03:26:11.023Z,96002.59
2022-10-30T03:28:50.948Z,95999.50
2022-10-30T03:31:20.111Z,95993.22
2022-10-30T03:33:54.533Z,95992.13
2022-10-30T03:36:22.821Z,95993.81
2022-10-30T03:38:50.876Z,95993.50
2022-10-30T03:41:21.746Z,95997.59
2022-10-30T03:43:50.766Z,95994.84
2022-10-30T03:46:18.521Z,96006.72
2022-10-30T03:48:49.838Z,96003.69
2022-10-30T03:51:18.264Z,95993.31
2022-10-30T03:53:47.676Z,95997.22
2022-10-30T03:56:15.393Z,96002.31
2022-10-30T03:58:51.617Z,95997.88
2022-10-30T04:01:22.603Z,95998.38
2022-10-30T04:03:56.335Z,96002.41
2022-10-30T04:06:25.921Z,95999.59
2022-10-30T04:08:55.753Z,96017.59
2022-10-30T04:11:24.611Z,96017.16
2022-10-30T04:13:53.891Z,96009.84
2022-10-30T04:16:21.544Z,96000.28
2022-10-30T04:18:49.885Z,95998.97
2022-10-30T04:21:17.638Z,96002.22
2022-10-30T04:23:45.666Z,96008.75
2022-10-30T04:26:15.065Z,96006.34
2022-10-30T04:28:44.764Z,96006.81
2022-10-30T04:31:13.743Z,95996.22
2022-10-30T04:33:41.466Z,96003.69
2022-10-30T04:36:09.773Z,95996.03
2022-10-30T04:38:37.802Z,96004.84
2022-10-30T04:41:07.754Z,95994.53
2022-10-30T04:43:49.427Z,95991.13
2022-10-30T04:46:18.889Z,95993.44
2022-10-30T04:48:47.431Z,95998.41
2022-10-30T04:51:15.996Z,95989.16
2022-10-30T04:53:45.440Z,95988.53
2022-10-30T04:56:16.425Z,95992.19
2022-10-30T04:58:44.447Z,95994.63
2022-10-30T05:01:12.230Z,95985.06
2022-10-30T05:03:41.792Z,96005.63
2022-10-30T05:06:21.445Z,95992.38
2022-10-30T05:08:49.718Z,95987.72
2022-10-30T05:11:27.657Z,95988.47
2022-10-30T05:13:56.722Z,95993.72
2022-10-30T05:16:24.689Z,95985.03
2022-10-30T05:18:54.915Z,95993.47
2022-10-30T05:21:22.907Z,95994.28
2022-10-30T05:23:51.204Z,95993.13
2022-10-30T05:26:20.314Z,95990.66
2022-10-30T05:28:48.988Z,95989.34
2022-10-30T05:31:16.648Z,95987.72
2022-10-30T05:34:07.253Z,95988.72
2022-10-30T05:36:36.871Z,95985.81
2022-10-30T05:39:05.029Z,95982.41
2022-10-30T05:41:36.693Z,95979.31
2022-10-30T05:44:05.049Z,95982.94
2022-10-30T05:46:34.152Z,95982.47
2022-10-30T05:49:19.921Z,95976.41
2022-10-30T05:51:48.140Z,95976.09
2022-10-30T05:54:17.041Z,95978.31
2022-10-30T05:57:00.563Z,95973.50
2022-10-30T05:59:30.058Z,95967.59
2022-10-30T06:01:58.260Z,95977.34
2022-10-30T06:04:27.725Z,95982.16
2022-10-30T06:06:55.544Z,95981.47
2022-10-30T06:09:23.205Z,95976.56
2022-10-30T06:11:59.673Z,95986.13
2022-10-30T06:14:42.476Z,95985.53
2022-10-30T06:17:10.502Z,95982.72
2022-10-30T06:19:55.208Z,95985.50
2022-10-30T06:22:41.553Z,95986.28
2022-10-30T06:25:16.453Z,95987.06
2022-10-30T06:28:05.405Z,95988.03
2022-10-30T06:30:33.709Z,95989.66
2022-10-30T06:33:03.451Z,95989.94
2022-10-30T06:35:33.588Z,95987.16
2022-10-30T06:38:01.844Z,95986.25
2022-10-30T06:40:31.810Z,95993.66
2022-10-30T06:43:18.163Z,95985.22
2022-10-30T06:48:37.541Z,95989.34
2022-10-30T06:51:07.111Z,95984.34
2022-10-30T06:53:38.502Z,95988.19
2022-10-30T06:56:29.256Z,95991.06
2022-10-30T06:59:11.417Z,95980.53
2022-10-30T07:02:06.985Z,95996.25
2022-10-30T07:04:46.009Z,95987.44
2022-10-30T07:07:15.940Z,95989.72
2022-10-30T07:09:44.217Z,95990.78
2022-10-30T07:12:13.383Z,95994.81
2022-10-30T07:15:00.296Z,95997.81
2022-10-30T07:17:36.216Z,95989.72
2022-10-30T07:20:11.453Z,95992.19
2022-10-30T07:22:41.284Z,95995.84
2022-10-30T07:25:09.841Z,95991.03
2022-10-30T07:27:55.016Z,95991.47
2022-10-30T07:30:43.067Z,95998.03
2022-10-30T07:33:17.265Z,95998.56
2022-10-30T07:36:01.919Z,95989.03
2022-10-30T07:38:46.542Z,95999.16
2022-10-30T07:41:34.648Z,96002.28
2022-10-30T07:44:34.441Z,95992.19
2022-10-30T07:47:34.475Z,95994.41
2022-10-30T07:50:30.051Z,95997.84
2022-10-30T07:52:57.776Z,95989.84
2022-10-30T07:55:29.622Z,95994.00
2022-10-30T07:58:15.725Z,95996.53
2022-10-30T08:01:06.524Z,95998.06
2022-10-30T08:03:35.403Z,95997.09
2022-10-30T08:06:24.776Z,96002.84
2022-10-30T08:08:55.429Z,95992.84
2022-10-30T08:11:29.991Z,95996.75
2022-10-30T08:14:00.388Z,95995.06
2022-10-30T08:16:28.837Z,96000.63
2022-10-30T08:18:58.291Z,95994.44
2022-10-30T08:21:26.560Z,95996.44
2022-10-30T08:24:14.476Z,95996.06
2022-10-30T08:26:47.224Z,95997.63
2022-10-30T08:29:15.128Z,95992.44
2022-10-30T08:31:45.022Z,95998.19
2022-10-30T08:34:26.598Z,95992.81
2022-10-30T08:36:55.902Z,95991.38
2022-10-30T08:39:25.195Z,95994.97
2022-10-30T08:42:00.715Z,95991.50
2022-10-30T08:44:34.711Z,95992.38
2022-10-30T08:47:14.320Z,95997.06
2022-10-30T08:49:42.501Z,95987.63
2022-10-30T08:52:11.489Z,95992.56
2022-10-30T08:54:40.537Z,95991.94
2022-10-30T08:57:09.941Z,96000.59
2022-10-30T08:59:40.465Z,96001.28
2022-10-30T09:02:14.250Z,96003.50
2022-10-30T09:05:01.035Z,95998.13
2022-10-30T09:07:47.391Z,96000.81
2022-10-30T09:10:33.846Z,96002.97
2022-10-30T09:13:03.541Z,96001.25
2022-10-30T09:15:32.168Z,96007.63
2022-10-30T09:18:02.012Z,96005.28
2022-10-30T09:20:30.794Z,96014.53
2022-10-30T09:22:59.581Z,96008.34
2022-10-30T09:25:27.960Z,96011.78
2022-10-30T09:28:15.358Z,96004.97
2022-10-30T09:31:18.493Z,96007.97
2022-10-30T09:33:46.703Z,96013.06
2022-10-30T09:36:35.100Z,96007.31
2022-10-30T09:39:02.816Z,96008.13
2022-10-30T09:41:55.789Z,96007.78
2022-10-30T09:44:37.042Z,96005.31
2022-10-30T09:47:23.049Z,96013.03
2022-10-30T09:50:04.456Z,96008.53
2022-10-30T09:52:48.191Z,96008.03
2022-10-30T09:55:29.543Z,96001.91
2022-10-30T09:58:05.449Z,95994.31
2022-10-30T10:00:39.515Z,95992.53
2022-10-30T10:03:28.211Z,95992.88
2022-10-30T10:06:21.121Z,95995.22
2022-10-30T10:09:08.058Z,95990.97
2022-10-30T10:12:07.309Z,95992.06
2022-10-30T10:14:38.481Z,95989.31
2022-10-30T10:17:14.145Z,95988.25
2022-10-30T10:19:49.517Z,95983.22
2022-10-30T10:22:22.625Z,95986.03
2022-10-30T10:24:50.841Z,95980.34
2022-10-30T10:27:28.819Z,95980.41
2022-10-30T10:30:05.255Z,95980.06
2022-10-30T10:32:48.741Z,95975.19
2022-10-30T10:35:35.654Z,95975.41
2022-10-30T10:38:14.305Z,95975.84
2022-10-30T10:40:54.918Z,95971.22
2022-10-30T10:43:32.391Z,95968.09
2022-10-30T10:46:23.158Z,95962.38
2022-10-30T10:49:04.153Z,95959.94
2022-10-30T10:51:37.206Z,95963.50
2022-10-30T10:54:12.515Z,95964.88
2022-10-30T10:56:43.633Z,95957.84
2022-10-30T10:59:17.832Z,95964.78
2022-10-30T11:01:50.861Z,95960.47
2022-10-30T11:04:27.999Z,95953.41
2022-10-30T11:06:57.379Z,95950.06
2022-10-30T11:09:27.748Z,95950.59
2022-10-30T11:11:56.260Z,95952.81
2022-10-30T11:14:26.084Z,95954.28
2022-10-30T11:17:11.962Z,95944.53
2022-10-30T11:19:41.325Z,95955.47
2022-10-30T11:22:20.149Z,95948.72
2022-10-30T11:24:47.821Z,95944.31
2022-10-30T11:27:25.651Z,95943.66
2022-10-30T11:29:55.701Z,95939.91
2022-10-30T11:32:27.175Z,95942.19
2022-10-30T11:35:13.861Z,95945.97
2022-10-30T11:37:43.312Z,95941.97
2022-10-30T11:40:19.328Z,95941.66
2022-10-30T11:42:49.441Z,95934.53
2022-10-30T11:45:19.885Z,95929.78
2022-10-30T11:47:48.325Z,95931.63
2022-10-30T11:50:21.588Z,95932.09
2022-10-30T11:52:51.550Z,95929.72
2022-10-30T11:55:23.642Z,95926.75
2022-10-30T11:57:53.204Z,95919.44
2022-10-30T12:00:24.249Z,95929.81
2022-10-30T12:02:54.618Z,95924.88
2022-10-30T12:05:37.380Z,95922.44
2022-10-30T12:08:19.565Z,95921.03
2022-10-30T12:10:55.511Z,95919.19
2022-10-30T12:13:24.881Z,95918.09
2022-10-30T12:16:07.093Z,95913.09
2022-10-30T12:18:35.562Z,95904.09
2022-10-30T12:21:05.571Z,95909.69
2022-10-30T12:23:34.382Z,95912.44
2022-10-30T12:26:09.273Z,95902.47
2022-10-30T12:28:37.533Z,95901.72
2022-10-30T12:31:10.614Z,95892.06
2022-10-30T12:33:43.459Z,95895.31
2022-10-30T12:36:17.429Z,95897.06
2022-10-30T12:38:48.444Z,95897.09
2022-10-30T12:41:21.547Z,95891.19
2022-10-30T12:43:57.437Z,95891.16
2022-10-30T12:46:33.208Z,95891.66
2022-10-30T12:49:11.773Z,95885.56
2022-10-30T12:51:47.547Z,95884.91
2022-10-30T12:54:24.335Z,95876.13
2022-10-30T12:57:06.819Z,95885.75
2022-10-30T12:59:42.174Z,95883.19
2022-10-30T13:02:22.098Z,95884.63
2022-10-30T13:04:57.782Z,95873.59
2022-10-30T13:07:32.508Z,95879.63
2022-10-30T13:10:14.208Z,95874.00
2022-10-30T13:12:46.014Z,95871.06
2022-10-30T13:15:22.834Z,95873.22
2022-10-30T13:17:51.871Z,95864.88
2022-10-30T13:20:20.215Z,95868.38
2022-10-30T13:22:54.903Z,95864.88
2022-10-30T13:25:29.241Z,95871.09
2022-10-30T13:28:05.020Z,95865.94
2022-10-30T13:30:38.233Z,95866.22
2022-10-30T13:33:16.100Z,95870.00
2022-10-30T13:35:52.210Z,95855.13
2022-10-30T13:38:36.341Z,95864.06
2022-10-30T13:41:15.418Z,95863.56
2022-10-30T13:43:50.832Z,95861.91
2022-10-30T13:46:28.131Z,95858.44
2022-10-30T13:49:13.881Z,95856.53
2022-10-30T13:51:45.305Z,95853.56
2022-10-30T13:54:22.057Z,95863.53
2022-10-30T13:56:51.716Z,95860.53
2022-10-30T13:59:36.620Z,95864.06
2022-10-30T14:02:15.706Z,95864.56
2022-10-30T14:04:53.525Z,95865.13
2022-10-30T14:07:31.887Z,95867.81
2022-10-30T14:10:09.611Z,95869.72
2022-10-30T14:13:06.484Z,95873.47
2022-10-30T14:15:41.850Z,95866.16
2022-10-30T14:18:26.097Z,95864.81
2022-10-30T14:20:54.927Z,95868.31
2022-10-30T14:23:25.033Z,95870.19
2022-10-30T14:26:15.891Z,95867.19
2022-10-30T14:28:45.471Z,95862.03
2022-10-30T14:31:16.898Z,95866.13
2022-10-30T14:33:50.225Z,95860.75
2022-10-30T14:36:21.560Z,95854.56
2022-10-30T14:39:00.236Z,95861.34
2022-10-30T14:41:49.623Z,95858.66
2022-10-30T14:44:25.643Z,95857.03
2022-10-30T14:47:05.120Z,95856.75
2022-10-30T14:49:45.324Z,95853.78
2022-10-30T14:52:22.024Z,95861.28
2022-10-30T14:54:57.610Z,95864.44
2022-10-30T14:57:47.759Z,95869.81
2022-10-30T15:00:41.029Z,95868.16
2022-10-30T15:03:18.269Z,95867.00
2022-10-30T15:05:52.677Z,95861.31
2022-10-30T15:08:35.827Z,95866.59
2022-10-30T15:11:32.856Z,95862.47
2022-10-30T15:14:12.523Z,95861.88
2022-10-30T15:16:52.046Z,95857.00
2022-10-30T15:19:23.371Z,95860.94
2022-10-30T15:21:54.607Z,95868.41
2022-10-30T15:24:29.572Z,95873.94
2022-10-30T15:27:01.458Z,95869.53
2022-10-30T15:29:34.741Z,95870.88
2022-10-30T15:32:04.385Z,95866.41
2022-10-30T15:34:34.321Z,95865.69
2022-10-30T15:37:12.066Z,95870.03
2022-10-30T15:39:39.753Z,95867.63
2022-10-30T15:42:07.748Z,95869.28
2022-10-30T15:44:39.943Z,95873.41
2022-10-30T15:47:16.112Z,95877.50
2022-10-30T15:49:50.041Z,95876.78
2022-10-30T15:52:23.218Z,95873.28
2022-10-30T15:54:59.045Z,95884.00
2022-10-30T15:58:01.131Z,95875.94
2022-10-30T16:00:26.155Z,95884.13
2022-10-30T16:03:04.885Z,95889.66
2022-10-30T16:05:33.537Z,95887.41
2022-10-30T16:08:03.310Z,95895.97
2022-10-30T16:10:34.604Z,95892.63
2022-10-30T16:13:03.949Z,95899.53
2022-10-30T16:15:35.743Z,95893.78
2022-10-30T16:18:20.509Z,95894.28
2022-10-30T16:20:51.695Z,95902.28
2022-10-30T16:23:21.823Z,95892.97
2022-10-30T16:25:55.602Z,95892.75
2022-10-30T16:28:29.307Z,95895.66
2022-10-30T16:31:01.829Z,95898.50
2022-10-30T16:33:31.627Z,95896.63
2022-10-30T16:36:00.849Z,95896.94
2022-10-30T16:38:32.660Z,95910.41
2022-10-30T16:41:00.699Z,95907.00
2022-10-30T16:43:30.793Z,95909.31
2022-10-30T16:46:28.492Z,95909.03
2022-10-30T16:49:00.127Z,95908.75
2022-10-30T16:51:28.409Z,95915.91
2022-10-30T16:53:56.831Z,95910.13
2022-10-30T16:56:26.946Z,95910.91
2022-10-30T16:58:58.871Z,95911.41
2022-10-30T17:01:29.203Z,95915.03
2022-10-30T17:03:58.914Z,95922.50
2022-10-30T17:06:29.107Z,95918.69
2022-10-30T17:09:00.156Z,95919.63
2022-10-30T17:11:40.221Z,95931.31
2022-10-30T17:14:19.025Z,95933.88
2022-10-30T17:16:56.120Z,95931.88
2022-10-30T17:19:40.423Z,95941.78
2022-10-30T17:22:14.750Z,95937.75
2022-10-30T17:24:42.926Z,95940.66
2022-10-30T17:27:29.749Z,95932.25
2022-10-30T17:29:57.539Z,95943.56
2022-10-30T17:32:29.079Z,95946.03
2022-10-30T17:35:01.902Z,95948.47
2022-10-30T17:37:30.123Z,95950.19
2022-10-30T17:39:57.792Z,95946.97
2022-10-30T17:42:25.774Z,95951.34
2022-10-30T17:44:53.586Z,95948.91
2022-10-30T17:47:21.754Z,95950.38
2022-10-30T17:49:50.879Z,95952.91
2022-10-30T17:52:21.843Z,95956.16
2022-10-30T17:54:49.635Z,95958.59
2022-10-30T17:57:18.167Z,95955.31
2022-10-30T17:59:45.837Z,95955.50
2022-10-30T18:02:15.966Z,95962.69
2022-10-30T18:04:44.420Z,95967.59
2022-10-30T18:07:15.889Z,95977.03
2022-10-30T18:09:44.420Z,95975.22
2022-10-30T18:12:15.084Z,95968.13
2022-10-30T18:14:45.384Z,95974.25
2022-10-30T18:17:13.279Z,95981.63
2022-10-30T18:19:41.252Z,95976.72
2022-10-30T18:22:10.503Z,95979.16
2022-10-30T18:24:40.132Z,95984.84
2022-10-30T18:27:07.747Z,95985.06
2022-10-30T18:29:36.005Z,95978.75
2022-10-30T18:32:09.205Z,95981.97
2022-10-30T18:34:38.386Z,95988.50
2022-10-30T18:37:06.348Z,95986.88
2022-10-30T18:39:34.522Z,95985.53
2022-10-30T18:42:03.611Z,95991.44
2022-10-30T18:44:31.763Z,95989.59
2022-10-30T18:47:02.944Z,95994.09
2022-10-30T18:49:33.647Z,95991.44
2022-10-30T18:52:01.372Z,95990.44
2022-10-30T18:54:29.781Z,95988.41
2022-10-30T18:56:57.466Z,95988.81
2022-10-30T18:59:27.153Z,95988.81
2022-10-30T19:01:54.887Z,95983.91
2022-10-30T19:04:22.978Z,95986.56
2022-10-30T19:06:50.920Z,95978.78
2022-10-30T19:09:19.056Z,95976.91
2022-10-30T19:11:46.697Z,95979.34
2022-10-30T19:14:15.968Z,95981.75
2022-10-30T19:16:44.984Z,95979.84
2022-10-30T19:19:15.190Z,95983.66
2022-10-30T19:21:42.971Z,95983.63
2022-10-30T19:24:15.078Z,95986.72
2022-10-30T19:26:42.839Z,95978.13
2022-10-30T19:29:10.829Z,95980.75
2022-10-30T19:31:38.485Z,95979.94
2022-10-30T19:34:07.521Z,95975.47
2022-10-30T19:36:37.034Z,95978.16
2022-10-30T19:39:10.403Z,95977.34
2022-10-30T19:41:38.629Z,95981.41
2022-10-30T19:44:07.626Z,95974.22
2022-10-30T19:46:35.432Z,95974.59
2022-10-30T19:49:17.355Z,95976.63
2022-10-30T19:51:45.022Z,95979.06
2022-10-30T19:54:12.685Z,95978.22
2022-10-30T19:56:42.147Z,95980.25
2022-10-30T19:59:10.479Z,95983.84
2022-10-30T20:01:38.237Z,95976.06
2022-10-30T20:04:06.316Z,95970.69
2022-10-30T20:06:35.304Z,95979.78
2022-10-30T20:09:03.450Z,95979.81
2022-10-30T20:11:31.867Z,95984.53
2022-10-30T20:13:59.940Z,95985.38
2022-10-30T20:16:27.628Z,95991.94
2022-10-30T20:18:55.603Z,95982.34
2022-10-30T20:21:23.217Z,95981.91
2022-10-30T20:23:52.673Z,95986.41
2022-10-30T20:26:24.996Z,95981.09
2022-10-30T20:28:53.801Z,95983.63
2022-10-30T20:31:21.485Z,95986.97
2022-10-30T20:33:49.222Z,95979.72
2022-10-30T20:36:17.121Z,95986.25
2022-10-30T20:38:44.900Z,95990.66
2022-10-30T20:41:21.592Z,95996.53
2022-10-30T20:43:50.162Z,95994.56
2022-10-30T20:46:18.729Z,96005.28
2022-10-30T20:48:46.410Z,96002.19
2022-10-30T20:51:14.803Z,96008.06
2022-10-30T20:53:42.552Z,96009.47
2022-10-30T20:56:11.186Z,96014.56
2022-10-30T20:58:40.646Z,96016.09
2022-10-30T21:01:08.551Z,96007.25
2022-10-30T21:03:36.256Z,96012.97
2022-10-30T21:06:04.098Z,96006.31
2022-10-30T21:08:32.802Z,96009.44
2022-10-30T21:11:01.689Z,96007.22
2022-10-30T21:13:30.251Z,96008.88
2022-10-30T21:16:03.523Z,96015.25
2022-10-30T21:18:32.391Z,96023.81
2022-10-30T21:21:01.361Z,96019.84
2022-10-30T21:23:29.210Z,96013.97
2022-10-30T21:26:00.180Z,96020.84
2022-10-30T21:28:28.136Z,96007.69
2022-10-30T21:30:55.768Z,96015.38
2022-10-30T21:33:25.431Z,96011.72
2022-10-30T21:35:53.396Z,96010.06
2022-10-30T21:38:21.007Z,96017.34
2022-10-30T21:40:55.769Z,96016.53
2022-10-30T21:43:23.425Z,96017.34
2022-10-30T21:45:51.484Z,96014.69
2022-10-30T21:48:19.340Z,96013.53
2022-10-30T21:50:48.652Z,96013.16
2022-10-30T21:53:16.273Z,96003.31
2022-10-30T21:55:43.959Z,96013.53
2022-10-30T21:58:11.583Z,96007.59
2022-10-30T22:00:39.527Z,96004.31
2022-10-30T22:03:07.215Z,96008.88
2022-10-30T22:05:35.054Z,96007.53
2022-10-30T22:08:04.052Z,96000.94
2022-10-30T22:10:31.719Z,96004.06
2022-10-30T22:12:59.410Z,96003.06
2022-10-30T22:15:27.408Z,96002.13
2022-10-30T22:17:55.012Z,96001.75
2022-10-30T22:20:23.306Z,96004.41
2022-10-30T22:22:50.990Z,96009.41
2022-10-30T22:25:19.981Z,96005.94
2022-10-30T22:27:48.263Z,95993.28
2022-10-30T22:30:16.120Z,95997.25
2022-10-30T22:32:43.755Z,95990.91
2022-10-30T22:35:11.837Z,96006.28
2022-10-30T22:37:39.441Z,95996.69
2022-10-30T22:40:08.138Z,95992.78
2022-10-30T22:42:37.342Z,95997.41
2022-10-30T22:45:05.668Z,95997.41
2022-10-30T22:47:33.292Z,95996.06
2022-10-30T22:50:00.978Z,96004.00
2022-10-30T22:52:28.601Z,96004.94
2022-10-30T22:54:56.821Z,96003.84
2022-10-30T22:57:24.534Z,96001.75
2022-10-30T22:59:53.509Z,96003.31
2022-10-30T23:02:21.559Z,96007.59
2022-10-30T23:04:49.233Z,96008.31
2022-10-30T23:07:18.105Z,96006.75
2022-10-30T23:09:45.756Z,96009.72
2022-10-30T23:12:13.390Z,96005.84
2022-10-30T23:14:41.061Z,96013.09
2022-10-30T23:17:10.388Z,96005.41
2022-10-30T23:19:38.067Z,96003.34
2022-10-30T23:22:06.035Z,96009.06
2022-10-30T23:24:33.825Z,95999.31
2022-10-30T23:27:01.779Z,96008.56
2022-10-30T23:29:29.392Z,96003.59
2022-10-30T23:31:57.036Z,96005.28
2022-10-30T23:34:25.983Z,95999.31
2022-10-30T23:36:57.707Z,96005.25
2022-10-30T23:39:29.304Z,96003.28
2022-10-30T23:41:57.285Z,95994.72
2022-10-30T23:44:24.975Z,95999.31
2022-10-30T23:46:52.619Z,96003.28
2022-10-30T23:49:20.331Z,96009.75
2022-10-30T23:51:49.652Z,96004.00
2022-10-30T23:54:17.295Z,96003.34
2022-10-30T23:56:45.313Z,95997.72
2022-10-30T23:59:12.948Z,95997.78
